sensor_id;sensor_type;location;lat;lon;timestamp;pressure;altitude;pressure_sealevel;temperature;humidity
64739;BME280;51175;51.186;0.276;2023-05-11T00:00:16;101072.56;;;18.62;60.44
64739;BME280;51175;51.186;0.276;2023-05-11T00:00:46;101068.28;;;18.61;60.47
64739;BME280;51175;51.186;0.276;2023-05-11T00:01:17;101072.84;;;18.60;60.26
64739;BME280;51175;51.186;0.276;2023-05-11T00:01:47;101068.28;;;18.61;60.58
64739;BME280;51175;51.186;0.276;2023-05-11T00:02:17;101069.38;;;18.60;60.48
64739;BME280;51175;51.186;0.276;2023-05-11T00:02:48;101072.06;;;18.60;60.53
64739;BME280;51175;51.186;0.276;2023-05-11T00:03:18;101077.41;;;18.60;60.25
64739;BME280;51175;51.186;0.276;2023-05-11T00:03:49;101070.94;;;18.61;60.51
64739;BME280;51175;51.186;0.276;2023-05-11T00:04:19;101073.94;;;18.59;60.53
64739;BME280;51175;51.186;0.276;2023-05-11T00:04:50;101065.91;;;18.59;60.56
64739;BME280;51175;51.186;0.276;2023-05-11T00:05:20;101068.56;;;18.59;60.66
64739;BME280;51175;51.186;0.276;2023-05-11T00:05:50;101077.72;;;18.58;60.48
64739;BME280;51175;51.186;0.276;2023-05-11T00:06:21;101072.34;;;18.58;60.26
64739;BME280;51175;51.186;0.276;2023-05-11T00:06:54;101069.19;;;18.56;60.50
64739;BME280;51175;51.186;0.276;2023-05-11T00:07:24;101071.84;;;18.56;60.18
64739;BME280;51175;51.186;0.276;2023-05-11T00:07:55;101073.75;;;18.56;60.55
64739;BME280;51175;51.186;0.276;2023-05-11T00:08:25;101075.63;;;18.55;60.31
64739;BME280;51175;51.186;0.276;2023-05-11T00:08:56;101069.47;;;18.55;60.45
64739;BME280;51175;51.186;0.276;2023-05-11T00:09:27;101072.97;;;18.55;60.33
64739;BME280;51175;51.186;0.276;2023-05-11T00:09:57;101071.38;;;18.54;60.54
64739;BME280;51175;51.186;0.276;2023-05-11T00:10:28;101074.81;;;18.55;60.49
64739;BME280;51175;51.186;0.276;2023-05-11T00:10:58;101074.06;;;18.54;60.41
64739;BME280;51175;51.186;0.276;2023-05-11T00:11:32;101072.44;;;18.53;60.41
64739;BME280;51175;51.186;0.276;2023-05-11T00:12:03;101070.59;;;18.54;60.35
64739;BME280;51175;51.186;0.276;2023-05-11T00:12:33;101074.34;;;18.53;60.34
64739;BME280;51175;51.186;0.276;2023-05-11T00:13:03;101076.22;;;18.52;60.33
64739;BME280;51175;51.186;0.276;2023-05-11T00:13:34;101068.19;;;18.52;60.38
64739;BME280;51175;51.186;0.276;2023-05-11T00:14:04;101074.34;;;18.53;60.37
64739;BME280;51175;51.186;0.276;2023-05-11T00:14:35;101068.19;;;18.52;60.25
64739;BME280;51175;51.186;0.276;2023-05-11T00:15:05;101074.34;;;18.53;60.34
64739;BME280;51175;51.186;0.276;2023-05-11T00:15:36;101075.44;;;18.52;60.30
64739;BME280;51175;51.186;0.276;2023-05-11T00:16:06;101076.53;;;18.51;60.36
64739;BME280;51175;51.186;0.276;2023-05-11T00:16:37;101074.66;;;18.51;60.17
64739;BME280;51175;51.186;0.276;2023-05-11T00:17:07;101071.19;;;18.51;60.25
64739;BME280;51175;51.186;0.276;2023-05-11T00:17:38;101077.34;;;18.51;60.47
64739;BME280;51175;51.186;0.276;2023-05-11T00:18:08;101073.06;;;18.50;60.36
64739;BME280;51175;51.186;0.276;2023-05-11T00:18:39;101065.31;;;18.48;60.41
64739;BME280;51175;51.186;0.276;2023-05-11T00:19:09;101067.22;;;18.48;60.19
64739;BME280;51175;51.186;0.276;2023-05-11T00:19:40;101067.22;;;18.48;60.27
64739;BME280;51175;51.186;0.276;2023-05-11T00:20:10;101073.34;;;18.48;60.39
64739;BME280;51175;51.186;0.276;2023-05-11T00:20:41;101068.00;;;18.48;60.18
64739;BME280;51175;51.186;0.276;2023-05-11T00:21:11;101069.91;;;18.48;60.19
64739;BME280;51175;51.186;0.276;2023-05-11T00:21:42;101069.09;;;18.47;60.15
64739;BME280;51175;51.186;0.276;2023-05-11T00:22:12;101072.59;;;18.48;60.23
64739;BME280;51175;51.186;0.276;2023-05-11T00:22:43;101074.44;;;18.47;60.30
64739;BME280;51175;51.186;0.276;2023-05-11T00:23:13;101069.09;;;18.47;60.19
64739;BME280;51175;51.186;0.276;2023-05-11T00:23:44;101069.09;;;18.47;60.35
64739;BME280;51175;51.186;0.276;2023-05-11T00:24:14;101065.63;;;18.47;60.15
64739;BME280;51175;51.186;0.276;2023-05-11T00:24:45;101068.31;;;18.47;60.08
64739;BME280;51175;51.186;0.276;2023-05-11T00:25:15;101069.41;;;18.46;60.37
64739;BME280;51175;51.186;0.276;2023-05-11T00:25:46;101070.19;;;18.46;60.46
64739;BME280;51175;51.186;0.276;2023-05-11T00:26:16;101070.19;;;18.46;60.28
64739;BME280;51175;51.186;0.276;2023-05-11T00:26:47;101068.31;;;18.47;60.55
64739;BME280;51175;51.186;0.276;2023-05-11T00:27:17;101074.75;;;18.46;60.19
64739;BME280;51175;51.186;0.276;2023-05-11T00:27:47;101071.28;;;18.45;60.52
64739;BME280;51175;51.186;0.276;2023-05-11T00:28:18;101070.50;;;18.45;60.11
64739;BME280;51175;51.186;0.276;2023-05-11T00:28:48;101070.50;;;18.45;60.11
64739;BME280;51175;51.186;0.276;2023-05-11T00:29:19;101072.06;;;18.46;60.29
64739;BME280;51175;51.186;0.276;2023-05-11T00:29:49;101069.41;;;18.46;60.29
64739;BME280;51175;51.186;0.276;2023-05-11T00:30:20;101065.94;;;18.45;60.14
64739;BME280;51175;51.186;0.276;2023-05-11T00:30:57;101071.28;;;18.45;60.47
64739;BME280;51175;51.186;0.276;2023-05-11T00:31:27;101071.56;;;18.44;60.17
64739;BME280;51175;51.186;0.276;2023-05-11T00:31:58;101067.31;;;18.43;60.25
64739;BME280;51175;51.186;0.276;2023-05-11T00:32:28;101066.53;;;18.42;60.25
64739;BME280;51175;51.186;0.276;2023-05-11T00:32:58;101070.00;;;18.43;60.11
64739;BME280;51175;51.186;0.276;2023-05-11T00:33:30;101069.19;;;18.42;60.19
64739;BME280;51175;51.186;0.276;2023-05-11T00:34:00;101071.09;;;18.42;60.21
64739;BME280;51175;51.186;0.276;2023-05-11T00:34:31;101068.44;;;18.42;60.42
64739;BME280;51175;51.186;0.276;2023-05-11T00:35:01;101061.47;;;18.41;60.11
64739;BME280;51175;51.186;0.276;2023-05-11T00:35:32;101072.97;;;18.41;60.04
64739;BME280;51175;51.186;0.276;2023-05-11T00:36:03;101072.97;;;18.41;60.30
64739;BME280;51175;51.186;0.276;2023-05-11T00:36:33;101075.66;;;18.41;60.23
64739;BME280;51175;51.186;0.276;2023-05-11T00:37:03;101071.41;;;18.40;60.52
64739;BME280;51175;51.186;0.276;2023-05-11T00:37:34;101074.84;;;18.41;60.38
64739;BME280;51175;51.186;0.276;2023-05-11T00:38:05;101074.06;;;18.40;60.05
64739;BME280;51175;51.186;0.276;2023-05-11T00:38:35;101074.06;;;18.40;60.22
64739;BME280;51175;51.186;0.276;2023-05-11T00:39:10;101067.94;;;18.40;60.01
64739;BME280;51175;51.186;0.276;2023-05-11T00:39:41;101073.28;;;18.40;60.22
64739;BME280;51175;51.186;0.276;2023-05-11T00:40:12;101072.47;;;18.39;60.14
64739;BME280;51175;51.186;0.276;2023-05-11T00:40:42;101071.69;;;18.39;60.20
64739;BME280;51175;51.186;0.276;2023-05-11T00:41:12;101075.16;;;18.39;59.95
64739;BME280;51175;51.186;0.276;2023-05-11T00:41:43;101070.91;;;18.38;59.99
64739;BME280;51175;51.186;0.276;2023-05-11T00:42:13;101070.09;;;18.38;60.26
64739;BME280;51175;51.186;0.276;2023-05-11T00:42:44;101075.44;;;18.38;60.08
64739;BME280;51175;51.186;0.276;2023-05-11T00:43:14;101070.09;;;18.38;60.21
64739;BME280;51175;51.186;0.276;2023-05-11T00:43:45;101067.41;;;18.38;60.04
64739;BME280;51175;51.186;0.276;2023-05-11T00:44:15;101075.44;;;18.38;59.99
64739;BME280;51175;51.186;0.276;2023-05-11T00:44:46;101069.31;;;18.37;59.96
64739;BME280;51175;51.186;0.276;2023-05-11T00:45:16;101077.66;;;18.35;60.16
64739;BME280;51175;51.186;0.276;2023-05-11T00:45:47;101069.63;;;18.35;60.15
64739;BME280;51175;51.186;0.276;2023-05-11T00:46:19;101072.28;;;18.35;59.98
64739;BME280;51175;51.186;0.276;2023-05-11T00:46:49;101070.41;;;18.36;60.27
64739;BME280;51175;51.186;0.276;2023-05-11T00:47:20;101069.63;;;18.35;60.16
64739;BME280;51175;51.186;0.276;2023-05-11T00:47:50;101068.03;;;18.34;60.16
64739;BME280;51175;51.186;0.276;2023-05-11T00:48:21;101067.25;;;18.34;60.39
64739;BME280;51175;51.186;0.276;2023-05-11T00:48:51;101070.69;;;18.34;60.12
64739;BME280;51175;51.186;0.276;2023-05-11T00:49:22;101073.66;;;18.33;60.21
64739;BME280;51175;51.186;0.276;2023-05-11T00:49:53;101068.31;;;18.33;60.38
64739;BME280;51175;51.186;0.276;2023-05-11T00:50:24;101072.88;;;18.32;60.34
64739;BME280;51175;51.186;0.276;2023-05-11T00:50:57;101073.97;;;18.31;60.17
64739;BME280;51175;51.186;0.276;2023-05-11T00:51:29;101072.88;;;18.32;60.05
64739;BME280;51175;51.186;0.276;2023-05-11T00:52:01;101073.97;;;18.31;60.32
64739;BME280;51175;51.186;0.276;2023-05-11T00:52:32;101074.75;;;18.32;60.14
64739;BME280;51175;51.186;0.276;2023-05-11T00:53:02;101071.28;;;18.31;60.12
64739;BME280;51175;51.186;0.276;2023-05-11T00:53:33;101071.28;;;18.31;60.01
64739;BME280;51175;51.186;0.276;2023-05-11T00:54:04;101083.84;;;18.31;60.32
64739;BME280;51175;51.186;0.276;2023-05-11T00:54:34;101076.63;;;18.31;60.08
64739;BME280;51175;51.186;0.276;2023-05-11T00:55:05;101079.31;;;18.31;60.42
64739;BME280;51175;51.186;0.276;2023-05-11T00:55:36;101080.41;;;18.30;60.08
64739;BME280;51175;51.186;0.276;2023-05-11T00:56:07;101076.94;;;18.30;59.99
64739;BME280;51175;51.186;0.276;2023-05-11T00:56:38;101076.94;;;18.30;60.11
64739;BME280;51175;51.186;0.276;2023-05-11T00:57:08;101078.81;;;18.29;60.32
64739;BME280;51175;51.186;0.276;2023-05-11T00:57:39;101078.81;;;18.29;59.96
64739;BME280;51175;51.186;0.276;2023-05-11T00:58:09;101077.22;;;18.28;60.18
64739;BME280;51175;51.186;0.276;2023-05-11T00:58:40;101077.22;;;18.28;60.36
64739;BME280;51175;51.186;0.276;2023-05-11T00:59:11;101089.50;;;18.29;60.14
64739;BME280;51175;51.186;0.276;2023-05-11T00:59:42;101080.72;;;18.29;60.22
64739;BME280;51175;51.186;0.276;2023-05-11T01:00:13;101077.22;;;18.28;59.98
64739;BME280;51175;51.186;0.276;2023-05-11T01:00:43;101079.91;;;18.28;59.92
64739;BME280;51175;51.186;0.276;2023-05-11T01:01:16;101077.22;;;18.28;60.12
64739;BME280;51175;51.186;0.276;2023-05-11T01:01:48;101087.13;;;18.28;60.28
64739;BME280;51175;51.186;0.276;2023-05-11T01:02:19;101076.44;;;18.28;59.97
64739;BME280;51175;51.186;0.276;2023-05-11T01:02:49;101078.34;;;18.27;59.97
64739;BME280;51175;51.186;0.276;2023-05-11T01:03:19;101082.88;;;18.27;60.09
64739;BME280;51175;51.186;0.276;2023-05-11T01:03:50;101078.34;;;18.27;60.02
64739;BME280;51175;51.186;0.276;2023-05-11T01:04:20;101086.34;;;18.27;59.91
64739;BME280;51175;51.186;0.276;2023-05-11T01:04:51;101074.84;;;18.27;60.08
64739;BME280;51175;51.186;0.276;2023-05-11T01:05:25;101082.88;;;18.27;60.25
64739;BME280;51175;51.186;0.276;2023-05-11T01:07:35;101085.03;;;18.24;60.39
64739;BME280;51175;51.186;0.276;2023-05-11T01:08:18;101079.69;;;18.24;60.30
64739;BME280;51175;51.186;0.276;2023-05-11T01:10:32;101081.41;;;18.20;60.16
64739;BME280;51175;51.186;0.276;2023-05-11T01:11:48;101086.22;;;18.18;60.04
64739;BME280;51175;51.186;0.276;2023-05-11T01:12:32;101082.00;;;18.17;60.21
64739;BME280;51175;51.186;0.276;2023-05-11T01:13:25;101077.75;;;18.16;60.31
64739;BME280;51175;51.186;0.276;2023-05-11T01:14:05;101078.03;;;18.15;60.14
64739;BME280;51175;51.186;0.276;2023-05-11T01:14:45;101079.91;;;18.14;60.34
64739;BME280;51175;51.186;0.276;2023-05-11T01:15:25;101081.78;;;18.14;60.21
64739;BME280;51175;51.186;0.276;2023-05-11T01:16:00;101074.06;;;18.12;60.36
64739;BME280;51175;51.186;0.276;2023-05-11T01:16:34;101079.41;;;18.12;60.53
64739;BME280;51175;51.186;0.276;2023-05-11T01:17:09;101083.69;;;18.13;60.42
64739;BME280;51175;51.186;0.276;2023-05-11T01:18:02;101078.63;;;18.11;60.43
64739;BME280;51175;51.186;0.276;2023-05-11T01:18:42;101080.47;;;18.11;60.44
64739;BME280;51175;51.186;0.276;2023-05-11T01:19:43;101076.22;;;18.10;60.28
64739;BME280;51175;51.186;0.276;2023-05-11T01:20:24;101076.22;;;18.10;60.22
64739;BME280;51175;51.186;0.276;2023-05-11T01:21:00;101080.78;;;18.09;60.52
64739;BME280;51175;51.186;0.276;2023-05-11T01:21:31;101079.19;;;18.08;60.14
64739;BME280;51175;51.186;0.276;2023-05-11T01:22:09;101074.63;;;18.09;60.56
64739;BME280;51175;51.186;0.276;2023-05-11T01:24:53;101084.03;;;18.06;60.38
64739;BME280;51175;51.186;0.276;2023-05-11T01:28:19;101077.72;;;18.02;60.59
64739;BME280;51175;51.186;0.276;2023-05-11T01:30:46;101078.00;;;18.01;60.51
64739;BME280;51175;51.186;0.276;2023-05-11T01:31:01;101077.19;;;18.00;60.52
64739;BME280;51175;51.186;0.276;2023-05-11T01:31:33;101080.94;;;17.99;60.60
64739;BME280;51175;51.186;0.276;2023-05-11T01:32:11;101085.50;;;17.98;60.51
64739;BME280;51175;51.186;0.276;2023-05-11T01:32:45;101086.28;;;17.99;60.53
64739;BME280;51175;51.186;0.276;2023-05-11T01:33:15;101088.97;;;17.99;60.33
64739;BME280;51175;51.186;0.276;2023-05-11T01:34:01;101082.53;;;18.00;60.34
64739;BME280;51175;51.186;0.276;2023-05-11T01:34:34;101089.75;;;17.99;60.70
64739;BME280;51175;51.186;0.276;2023-05-11T01:35:16;101083.63;;;17.99;60.55
64739;BME280;51175;51.186;0.276;2023-05-11T01:35:51;101080.16;;;17.98;60.73
64739;BME280;51175;51.186;0.276;2023-05-11T01:36:27;101080.94;;;17.99;60.32
64739;BME280;51175;51.186;0.276;2023-05-11T01:37:05;101082.84;;;17.98;60.45
64739;BME280;51175;51.186;0.276;2023-05-11T01:37:41;101082.84;;;17.98;60.59
64739;BME280;51175;51.186;0.276;2023-05-11T01:38:18;101090.84;;;17.98;60.26
64739;BME280;51175;51.186;0.276;2023-05-11T01:38:51;101090.84;;;17.98;60.49
64739;BME280;51175;51.186;0.276;2023-05-11T01:39:29;101090.84;;;17.98;60.36
64739;BME280;51175;51.186;0.276;2023-05-11T01:40:04;101086.28;;;17.99;60.34
64739;BME280;51175;51.186;0.276;2023-05-11T01:40:40;101083.91;;;17.97;60.59
64739;BME280;51175;51.186;0.276;2023-05-11T01:41:14;101083.91;;;17.97;60.32
64739;BME280;51175;51.186;0.276;2023-05-11T01:41:50;101089.25;;;17.97;60.43
64739;BME280;51175;51.186;0.276;2023-05-11T01:43:16;101080.47;;;17.97;60.40
64739;BME280;51175;51.186;0.276;2023-05-11T01:43:56;101081.53;;;17.96;60.57
64739;BME280;51175;51.186;0.276;2023-05-11T01:44:29;101082.34;;;17.96;60.44
64739;BME280;51175;51.186;0.276;2023-05-11T01:45:00;101081.53;;;17.96;60.28
64739;BME280;51175;51.186;0.276;2023-05-11T01:45:36;101082.34;;;17.96;60.38
64739;BME280;51175;51.186;0.276;2023-05-11T01:46:09;101087.69;;;17.96;60.41
64739;BME280;51175;51.186;0.276;2023-05-11T01:46:40;101088.47;;;17.97;60.70
64739;BME280;51175;51.186;0.276;2023-05-11T01:47:12;101088.47;;;17.97;60.27
64739;BME280;51175;51.186;0.276;2023-05-11T01:47:44;101091.94;;;17.97;60.38
64739;BME280;51175;51.186;0.276;2023-05-11T01:48:21;101079.66;;;17.96;60.37
64739;BME280;51175;51.186;0.276;2023-05-11T01:48:55;101085.81;;;17.97;60.37
64739;BME280;51175;51.186;0.276;2023-05-11T01:49:28;101091.94;;;17.97;60.51
64739;BME280;51175;51.186;0.276;2023-05-11T01:49:59;101088.47;;;17.97;60.22
64739;BME280;51175;51.186;0.276;2023-05-11T01:50:32;101087.69;;;17.96;60.54
64739;BME280;51175;51.186;0.276;2023-05-11T01:51:03;101090.34;;;17.96;60.33
64739;BME280;51175;51.186;0.276;2023-05-11T01:51:38;101093.81;;;17.97;60.54
64739;BME280;51175;51.186;0.276;2023-05-11T01:52:12;101098.38;;;17.96;60.18
64739;BME280;51175;51.186;0.276;2023-05-11T01:52:45;101093.03;;;17.96;60.42
64739;BME280;51175;51.186;0.276;2023-05-11T01:53:17;101092.22;;;17.96;60.24
64739;BME280;51175;51.186;0.276;2023-05-11T01:53:49;101091.16;;;17.97;60.20
64739;BME280;51175;51.186;0.276;2023-05-11T01:54:22;101094.88;;;17.96;60.25
64739;BME280;51175;51.186;0.276;2023-05-11T01:54:53;101094.88;;;17.96;60.41
64739;BME280;51175;51.186;0.276;2023-05-11T01:55:25;101086.09;;;17.95;60.20
64739;BME280;51175;51.186;0.276;2023-05-11T01:55:58;101088.78;;;17.95;60.28
64739;BME280;51175;51.186;0.276;2023-05-11T01:56:30;101094.13;;;17.95;60.37
64739;BME280;51175;51.186;0.276;2023-05-11T01:57:02;101094.13;;;17.95;60.36
64739;BME280;51175;51.186;0.276;2023-05-11T01:57:35;101094.41;;;17.94;60.31
64739;BME280;51175;51.186;0.276;2023-05-11T01:58:09;101089.06;;;17.94;60.21
64739;BME280;51175;51.186;0.276;2023-05-11T01:58:41;101094.13;;;17.95;60.36
64739;BME280;51175;51.186;0.276;2023-05-11T01:59:13;101094.41;;;17.94;60.37
64739;BME280;51175;51.186;0.276;2023-05-11T01:59:44;101093.31;;;17.95;60.28
64739;BME280;51175;51.186;0.276;2023-05-11T02:00:15;101095.19;;;17.94;60.40
64739;BME280;51175;51.186;0.276;2023-05-11T02:00:47;101091.75;;;17.94;60.36
64739;BME280;51175;51.186;0.276;2023-05-11T02:01:18;101092.50;;;17.94;60.42
64739;BME280;51175;51.186;0.276;2023-05-11T02:01:49;101092.50;;;17.94;60.40
64739;BME280;51175;51.186;0.276;2023-05-11T02:02:20;101101.34;;;17.95;60.41
64739;BME280;51175;51.186;0.276;2023-05-11T02:02:53;101097.84;;;17.94;60.26
64739;BME280;51175;51.186;0.276;2023-05-11T02:03:27;101101.34;;;17.95;60.49
64739;BME280;51175;51.186;0.276;2023-05-11T02:04:01;101096.28;;;17.93;60.27
64739;BME280;51175;51.186;0.276;2023-05-11T02:04:34;101099.75;;;17.94;60.35
64739;BME280;51175;51.186;0.276;2023-05-11T02:05:07;101099.75;;;17.94;60.35
64739;BME280;51175;51.186;0.276;2023-05-11T02:05:39;101104.31;;;17.93;60.21
64739;BME280;51175;51.186;0.276;2023-05-11T02:06:10;101098.97;;;17.93;60.40
64739;BME280;51175;51.186;0.276;2023-05-11T02:06:43;101090.13;;;17.93;60.41
64739;BME280;51175;51.186;0.276;2023-05-11T02:07:15;101097.38;;;17.92;60.40
64739;BME280;51175;51.186;0.276;2023-05-11T02:07:51;101092.03;;;17.92;60.25
64739;BME280;51175;51.186;0.276;2023-05-11T02:08:24;101085.09;;;17.91;60.23
64739;BME280;51175;51.186;0.276;2023-05-11T02:08:55;101090.44;;;17.91;60.25
64739;BME280;51175;51.186;0.276;2023-05-11T02:09:28;101087.75;;;17.91;60.08
64739;BME280;51175;51.186;0.276;2023-05-11T02:09:59;101091.22;;;17.92;60.05
64739;BME280;51175;51.186;0.276;2023-05-11T02:10:30;101092.34;;;17.91;60.28
64739;BME280;51175;51.186;0.276;2023-05-11T02:11:03;101092.34;;;17.91;60.37
64739;BME280;51175;51.186;0.276;2023-05-11T02:11:36;101099.25;;;17.92;60.05
64739;BME280;51175;51.186;0.276;2023-05-11T02:12:08;101095.00;;;17.91;60.15
64739;BME280;51175;51.186;0.276;2023-05-11T02:12:41;101095.00;;;17.91;60.17
64739;BME280;51175;51.186;0.276;2023-05-11T02:13:15;101098.44;;;17.91;60.25
64739;BME280;51175;51.186;0.276;2023-05-11T02:13:48;101095.00;;;17.91;60.10
64739;BME280;51175;51.186;0.276;2023-05-11T02:14:20;101095.78;;;17.91;60.35
64739;BME280;51175;51.186;0.276;2023-05-11T02:14:53;101096.59;;;17.92;60.14
64739;BME280;51175;51.186;0.276;2023-05-11T02:15:24;101096.88;;;17.90;60.17
64739;BME280;51175;51.186;0.276;2023-05-11T02:15:56;101103.03;;;17.91;60.24
64739;BME280;51175;51.186;0.276;2023-05-11T02:16:30;101091.81;;;17.89;60.18
64739;BME280;51175;51.186;0.276;2023-05-11T02:17:02;101101.41;;;17.90;60.04
64739;BME280;51175;51.186;0.276;2023-05-11T02:17:34;101099.84;;;17.89;60.31
64739;BME280;51175;51.186;0.276;2023-05-11T02:18:06;101097.97;;;17.89;60.23
64739;BME280;51175;51.186;0.276;2023-05-11T02:18:39;101095.31;;;17.89;60.16
64739;BME280;51175;51.186;0.276;2023-05-11T02:19:12;101097.16;;;17.89;60.23
64739;BME280;51175;51.186;0.276;2023-05-11T02:19:44;101099.84;;;17.89;60.03
64739;BME280;51175;51.186;0.276;2023-05-11T02:20:16;101099.84;;;17.89;60.28
64739;BME280;51175;51.186;0.276;2023-05-11T02:20:48;101107.84;;;17.89;60.24
64739;BME280;51175;51.186;0.276;2023-05-11T02:21:21;101098.25;;;17.87;60.14
64739;BME280;51175;51.186;0.276;2023-05-11T02:21:52;101102.50;;;17.89;60.43
64739;BME280;51175;51.186;0.276;2023-05-11T02:22:23;101103.59;;;17.87;60.13
64739;BME280;51175;51.186;0.276;2023-05-11T02:22:55;101102.81;;;17.87;60.41
64739;BME280;51175;51.186;0.276;2023-05-11T02:23:26;101100.13;;;17.87;60.19
64739;BME280;51175;51.186;0.276;2023-05-11T02:24:01;101094.00;;;17.86;59.99
64739;BME280;51175;51.186;0.276;2023-05-11T02:24:33;101096.66;;;17.86;60.48
64739;BME280;51175;51.186;0.276;2023-05-11T02:25:06;101099.34;;;17.86;60.21
64739;BME280;51175;51.186;0.276;2023-05-11T02:25:39;101103.91;;;17.86;60.50
64739;BME280;51175;51.186;0.276;2023-05-11T02:26:11;101108.44;;;17.85;60.26
64739;BME280;51175;51.186;0.276;2023-05-11T02:26:43;101109.25;;;17.86;60.08
64739;BME280;51175;51.186;0.276;2023-05-11T02:27:15;101103.09;;;17.85;60.24
64739;BME280;51175;51.186;0.276;2023-05-11T02:27:46;101100.44;;;17.85;60.27
64739;BME280;51175;51.186;0.276;2023-05-11T02:28:17;101108.44;;;17.85;60.32
64739;BME280;51175;51.186;0.276;2023-05-11T02:28:48;101103.09;;;17.85;60.22
64739;BME280;51175;51.186;0.276;2023-05-11T02:29:18;101111.13;;;17.85;60.34
64739;BME280;51175;51.186;0.276;2023-05-11T02:29:49;101102.28;;;17.85;60.20
64739;BME280;51175;51.186;0.276;2023-05-11T02:30:19;101104.19;;;17.84;60.26
64739;BME280;51175;51.186;0.276;2023-05-11T02:30:55;101110.31;;;17.85;60.36
64739;BME280;51175;51.186;0.276;2023-05-11T02:31:31;101103.41;;;17.84;60.43
64739;BME280;51175;51.186;0.276;2023-05-11T02:32:08;101099.91;;;17.83;60.39
64739;BME280;51175;51.186;0.276;2023-05-11T02:32:46;101102.59;;;17.83;60.33
64739;BME280;51175;51.186;0.276;2023-05-11T02:33:20;101113.28;;;17.83;60.28
64739;BME280;51175;51.186;0.276;2023-05-11T02:33:58;101107.16;;;17.83;60.19
64739;BME280;51175;51.186;0.276;2023-05-11T02:34:38;101113.28;;;17.83;60.25
64739;BME280;51175;51.186;0.276;2023-05-11T02:35:16;101108.22;;;17.82;60.07
64739;BME280;51175;51.186;0.276;2023-05-11T02:35:49;101104.78;;;17.81;60.10
64739;BME280;51175;51.186;0.276;2023-05-11T02:36:22;101108.22;;;17.82;60.06
64739;BME280;51175;51.186;0.276;2023-05-11T02:36:57;101103.97;;;17.81;60.38
64739;BME280;51175;51.186;0.276;2023-05-11T02:37:29;101101.31;;;17.81;60.30
64739;BME280;51175;51.186;0.276;2023-05-11T02:38:02;101105.84;;;17.80;60.50
64739;BME280;51175;51.186;0.276;2023-05-11T02:38:34;101108.53;;;17.80;60.25
64739;BME280;51175;51.186;0.276;2023-05-11T02:39:07;101105.84;;;17.80;60.08
64739;BME280;51175;51.186;0.276;2023-05-11T02:39:40;101105.84;;;17.80;60.27
64739;BME280;51175;51.186;0.276;2023-05-11T02:40:17;101108.53;;;17.80;60.51
64739;BME280;51175;51.186;0.276;2023-05-11T02:40:54;101106.16;;;17.79;60.27
64739;BME280;51175;51.186;0.276;2023-05-11T02:41:27;101101.91;;;17.78;60.07
64739;BME280;51175;51.186;0.276;2023-05-11T02:42:01;101103.78;;;17.77;60.51
64739;BME280;51175;51.186;0.276;2023-05-11T02:42:37;101111.00;;;17.77;60.36
64739;BME280;51175;51.186;0.276;2023-05-11T02:43:11;101106.44;;;17.77;60.09
64739;BME280;51175;51.186;0.276;2023-05-11T02:43:47;101107.53;;;17.76;60.41
64739;BME280;51175;51.186;0.276;2023-05-11T02:44:19;101112.06;;;17.75;60.30
64739;BME280;51175;51.186;0.276;2023-05-11T02:44:58;101109.41;;;17.75;60.18
64739;BME280;51175;51.186;0.276;2023-05-11T02:45:31;101112.88;;;17.76;60.14
64739;BME280;51175;51.186;0.276;2023-05-11T02:46:06;101108.63;;;17.75;60.24
64739;BME280;51175;51.186;0.276;2023-05-11T02:46:40;101110.50;;;17.74;60.10
64739;BME280;51175;51.186;0.276;2023-05-11T02:47:13;101112.38;;;17.74;60.36
64739;BME280;51175;51.186;0.276;2023-05-11T02:47:47;101116.66;;;17.75;60.31
64739;BME280;51175;51.186;0.276;2023-05-11T02:48:25;101105.44;;;17.73;60.32
64739;BME280;51175;51.186;0.276;2023-05-11T02:48:58;101109.69;;;17.74;60.38
64739;BME280;51175;51.186;0.276;2023-05-11T02:49:30;101108.94;;;17.73;60.32
64739;BME280;51175;51.186;0.276;2023-05-11T02:50:04;101111.59;;;17.73;60.06
64739;BME280;51175;51.186;0.276;2023-05-11T02:50:39;101108.94;;;17.73;60.24
64739;BME280;51175;51.186;0.276;2023-05-11T02:51:13;101106.25;;;17.73;60.13
64739;BME280;51175;51.186;0.276;2023-05-11T02:51:46;101111.59;;;17.73;60.19
64739;BME280;51175;51.186;0.276;2023-05-11T02:52:19;101110.00;;;17.72;60.41
64739;BME280;51175;51.186;0.276;2023-05-11T02:52:54;101114.25;;;17.73;60.38
64739;BME280;51175;51.186;0.276;2023-05-11T02:53:27;101115.34;;;17.72;60.28
64739;BME280;51175;51.186;0.276;2023-05-11T02:53:58;101118.81;;;17.73;60.29
64739;BME280;51175;51.186;0.276;2023-05-11T02:54:30;101110.00;;;17.72;60.44
64739;BME280;51175;51.186;0.276;2023-05-11T02:55:02;101111.09;;;17.71;60.12
64739;BME280;51175;51.186;0.276;2023-05-11T02:55:34;101118.00;;;17.72;60.41
64739;BME280;51175;51.186;0.276;2023-05-11T02:56:06;101109.22;;;17.72;60.33
64739;BME280;51175;51.186;0.276;2023-05-11T02:56:38;101104.94;;;17.71;60.33
64739;BME280;51175;51.186;0.276;2023-05-11T02:57:08;101114.84;;;17.70;60.23
64739;BME280;51175;51.186;0.276;2023-05-11T02:57:39;101116.44;;;17.71;60.09
64739;BME280;51175;51.186;0.276;2023-05-11T02:58:10;101112.97;;;17.71;60.11
64739;BME280;51175;51.186;0.276;2023-05-11T02:58:40;101115.63;;;17.71;60.37
64739;BME280;51175;51.186;0.276;2023-05-11T02:59:11;101108.72;;;17.70;60.30
64739;BME280;51175;51.186;0.276;2023-05-11T02:59:41;101114.84;;;17.70;60.37
64739;BME280;51175;51.186;0.276;2023-05-11T03:00:12;101115.63;;;17.71;60.08
64739;BME280;51175;51.186;0.276;2023-05-11T03:00:42;101110.56;;;17.69;60.49
64739;BME280;51175;51.186;0.276;2023-05-11T03:01:13;101117.53;;;17.70;60.43
64739;BME280;51175;51.186;0.276;2023-05-11T03:01:44;101117.53;;;17.70;60.36
64739;BME280;51175;51.186;0.276;2023-05-11T03:02:15;101116.72;;;17.70;60.19